Time;durP1;ratioP1;P1;durP2;ratioP2;P2;SDS_P1;SDS_P2;PMS_P1;PMS_P2;Temp;Humidity;BMP_temperature;BMP_pressure;BME280_temperature;BME280_humidity;BME280_pressure;Samples;Min_cycle;Max_cycle;Signal;HPM_P1;HPM_P2
2022/06/18 00:00:27;;;;;;;4.93;2.78;;;;;;;18.84;61.77;99773.13;5051067;28;20029;-56
2022/06/18 00:02:53;;;;;;;5.35;2.50;;;;;;;18.63;62.40;99778.69;5066986;28;20147;-56
2022/06/18 00:05:19;;;;;;;4.18;2.30;;;;;;;18.64;62.84;99777.56;5067456;28;20031;-55
2022/06/18 00:07:47;;;;;;;4.75;2.50;;;;;;;18.57;62.91;99785.25;5067241;28;20025;-56
2022/06/18 00:10:19;;;;;;;6.72;2.35;;;;;;;18.57;62.73;99777.09;5066377;28;20037;-56
2022/06/18 00:15:30;;;;;;;4.75;2.15;;;;;;;18.35;63.90;99776.69;5064820;28;20063;-56
2022/06/18 00:17:56;;;;;;;5.85;2.72;;;;;;;18.23;64.29;99769.69;5065256;28;20025;-56
2022/06/18 00:20:22;;;;;;;5.35;2.40;;;;;;;18.25;63.78;99770.22;5067157;28;20489;-55
2022/06/18 00:22:50;;;;;;;6.47;2.45;;;;;;;18.34;63.84;99773.16;5067087;28;20029;-56
2022/06/18 00:25:21;;;;;;;11.27;2.63;;;;;;;18.24;64.25;99771.31;5049212;28;20017;-56
2022/06/18 00:27:47;;;;;;;3.78;2.42;;;;;;;18.09;64.95;99763.25;5041864;28;20024;-56
2022/06/18 00:30:14;;;;;;;5.00;2.50;;;;;;;18.10;64.90;99767.59;5066659;28;20031;-58
2022/06/18 00:32:40;;;;;;;5.75;2.38;;;;;;;18.31;63.41;99773.72;5048318;28;20024;-56
2022/06/18 00:35:06;;;;;;;4.25;2.50;;;;;;;18.86;60.88;99773.66;5066707;28;20378;-56
2022/06/18 00:37:31;;;;;;;5.35;2.60;;;;;;;19.00;60.16;99780.06;5065328;28;20094;-55
2022/06/18 00:39:57;;;;;;;7.53;2.63;;;;;;;19.13;59.43;99773.94;5047720;28;20588;-56
2022/06/18 00:42:32;;;;;;;4.80;2.50;;;;;;;19.10;59.16;99774.53;5032957;28;20025;-57
2022/06/18 00:44:59;;;;;;;5.95;2.55;;;;;;;19.27;58.42;99767.84;5051219;28;20232;-56
2022/06/18 00:47:58;;;;;;;6.03;2.40;;;;;;;19.25;58.10;99764.63;5033584;28;20025;-55
2022/06/18 00:50:41;;;;;;;3.72;2.17;;;;;;;19.15;58.75;99771.78;5039980;28;20036;-57
2022/06/18 00:53:20;;;;;;;7.07;2.75;;;;;;;18.96;60.03;99779.00;5040916;28;20028;-57
2022/06/18 00:55:59;;;;;;;6.78;2.80;;;;;;;18.61;62.06;99777.34;5048553;28;20086;-57
2022/06/18 00:58:35;;;;;;;10.10;2.50;;;;;;;18.57;61.50;99777.09;5035556;28;20029;-56
2022/06/18 01:01:00;;;;;;;3.85;2.47;;;;;;;18.79;60.98;99767.72;5066528;28;20111;-55
2022/06/18 01:03:35;;;;;;;3.22;2.30;;;;;;;18.81;60.57;99770.97;5025914;28;20371;-56
2022/06/18 01:06:10;;;;;;;4.55;2.30;;;;;;;18.80;60.64;99763.94;5066276;28;20027;-56
2022/06/18 01:08:35;;;;;;;4.03;2.20;;;;;;;18.71;60.70;99772.63;5032403;28;20036;-56
2022/06/18 01:11:03;;;;;;;4.82;2.40;;;;;;;18.59;61.15;99774.09;5065589;28;20044;-55
2022/06/18 01:13:32;;;;;;;3.60;2.20;;;;;;;18.54;61.64;99764.06;5031569;28;20040;-56
2022/06/18 01:15:58;;;;;;;3.90;2.17;;;;;;;18.74;60.21;99763.13;5049304;28;20024;-55
2022/06/18 01:18:23;;;;;;;3.75;2.00;;;;;;;18.79;60.38;99757.66;5049552;28;20452;-56
2022/06/18 01:20:52;;;;;;;6.50;2.30;;;;;;;18.78;59.88;99764.22;5062534;28;20547;-56
2022/06/18 01:23:28;;;;;;;4.40;2.55;;;;;;;18.80;60.14;99753.88;5042287;28;20270;-56
2022/06/18 01:25:54;;;;;;;4.07;2.28;;;;;;;18.86;59.81;99757.34;5024381;28;20036;-56
2022/06/18 01:28:20;;;;;;;3.75;2.30;;;;;;;18.73;60.53;99748.72;5068803;28;20021;-56
2022/06/18 01:30:45;;;;;;;4.35;2.58;;;;;;;18.52;61.64;99750.81;5052519;28;20074;-55
2022/06/18 01:33:11;;;;;;;2.97;2.05;;;;;;;18.44;61.95;99747.84;5050444;28;20085;-56
2022/06/18 01:35:38;;;;;;;5.20;2.40;;;;;;;18.21;62.80;99747.47;5035936;28;20127;-57
2022/06/18 01:38:04;;;;;;;3.80;2.25;;;;;;;18.10;63.26;99745.91;5069361;28;20017;-55
2022/06/18 01:40:54;;;;;;;4.93;2.20;;;;;;;18.05;63.45;99744.03;5069157;28;20081;-56
2022/06/18 01:43:20;;;;;;;3.45;2.13;;;;;;;18.10;63.39;99746.72;5049308;28;20035;-56
2022/06/18 01:45:48;;;;;;;6.13;2.20;;;;;;;18.15;63.26;99747.78;5040262;28;21746;-55
2022/06/18 01:48:33;;;;;;;6.03;2.38;;;;;;;18.14;63.18;99744.25;5030065;28;20025;-56
2022/06/18 01:51:10;;;;;;;4.65;2.75;;;;;;;18.03;63.92;99742.69;5064818;28;20112;-56
2022/06/18 01:54:00;;;;;;;4.15;2.05;;;;;;;18.11;63.81;99742.09;5070252;28;20093;-56
2022/06/18 01:56:37;;;;;;;3.35;2.40;;;;;;;17.99;64.02;99736.19;5055161;28;20032;-56
2022/06/18 01:59:27;;;;;;;3.63;2.30;;;;;;;18.10;63.17;99737.78;5024665;28;20128;-56
2022/06/18 02:01:53;;;;;;;4.57;2.30;;;;;;;18.06;63.26;99742.94;5066471;28;20419;-56
2022/06/18 02:04:19;;;;;;;4.55;2.55;;;;;;;17.98;64.57;99738.09;5069805;28;20032;-55
2022/06/18 02:06:44;;;;;;;4.03;2.28;;;;;;;17.92;64.12;99741.09;5069225;28;20108;-58
2022/06/18 02:09:30;;;;;;;4.78;2.35;;;;;;;18.00;64.08;99740.53;5069009;28;20036;-56
2022/06/18 02:11:56;;;;;;;3.63;2.30;;;;;;;18.05;63.17;99744.03;5069013;28;20047;-58
2022/06/18 02:14:21;;;;;;;4.45;2.42;;;;;;;17.98;63.72;99731.88;5045818;28;20118;-55
2022/06/18 02:16:47;;;;;;;5.50;2.60;;;;;;;18.01;63.42;99726.69;5070004;28;20036;-56
2022/06/18 02:19:13;;;;;;;4.68;2.30;;;;;;;17.96;63.77;99734.03;5027633;28;20082;-56
2022/06/18 02:21:43;;;;;;;6.47;2.20;;;;;;;17.95;63.76;99733.22;5052238;28;20033;-56
2022/06/18 02:24:09;;;;;;;4.75;2.20;;;;;;;17.97;63.50;99728.34;5068765;28;20025;-53
2022/06/18 02:26:36;;;;;;;3.45;2.10;;;;;;;17.94;63.45;99728.06;5068890;28;20052;-56
2022/06/18 02:29:02;;;;;;;5.25;2.58;;;;;;;17.96;63.44;99724.00;5068927;28;20028;-55
2022/06/18 02:31:30;;;;;;;6.13;2.60;;;;;;;17.97;63.41;99722.94;5051100;28;20097;-55
2022/06/18 02:34:08;;;;;;;7.47;2.35;;;;;;;17.95;63.52;99730.53;5044076;28;20055;-56
2022/06/18 02:36:35;;;;;;;3.72;2.22;;;;;;;17.92;64.01;99728.34;5034625;28;20019;-56
2022/06/18 02:39:24;;;;;;;3.80;2.40;;;;;;;17.77;64.74;99722.97;5069395;28;20028;-56
2022/06/18 02:41:50;;;;;;;3.45;2.30;;;;;;;17.72;65.20;99729.22;5070630;28;20025;-56
2022/06/18 02:44:15;;;;;;;6.53;2.53;;;;;;;17.52;67.47;99718.47;5050909;28;20020;-56
2022/06/18 02:46:41;;;;;;;6.53;2.38;;;;;;;17.39;67.72;99711.72;5069386;28;20059;-57
2022/06/18 02:49:07;;;;;;;3.65;2.20;;;;;;;17.38;67.70;99719.06;5069911;28;20028;-57
2022/06/18 02:51:33;;;;;;;4.00;2.47;;;;;;;17.42;68.19;99720.13;5049512;28;20532;-56
2022/06/18 02:53:59;;;;;;;3.63;2.40;;;;;;;17.35;67.64;99722.31;5066353;28;20121;-56
2022/06/18 02:56:24;;;;;;;5.38;2.30;;;;;;;17.30;68.64;99722.34;5051343;28;20182;-56
2022/06/18 02:58:50;;;;;;;3.92;2.30;;;;;;;17.25;67.57;99719.63;5069090;28;20348;-56
2022/06/18 03:01:17;;;;;;;3.90;2.28;;;;;;;17.25;67.94;99727.75;5035029;28;20033;-56
2022/06/18 03:03:47;;;;;;;3.42;2.17;;;;;;;17.00;68.62;99731.31;5069272;28;20540;-56
2022/06/18 03:06:13;;;;;;;4.05;2.47;;;;;;;16.92;68.81;99724.53;5068949;28;20031;-55
2022/06/18 03:08:39;;;;;;;3.92;2.58;;;;;;;16.75;69.84;99726.72;5050900;28;20482;-56
2022/06/18 03:13:50;;;;;;;5.93;2.30;;;;;;;16.63;70.32;99724.25;5065230;28;20035;-56
2022/06/18 03:16:18;;;;;;;2.95;2.20;;;;;;;16.71;70.59;99722.91;5050645;28;20020;-57
2022/06/18 03:18:43;;;;;;;5.20;2.35;;;;;;;16.76;69.82;99712.06;5068324;28;20526;-55
2022/06/18 03:21:25;;;;;;;4.75;2.40;;;;;;;16.86;69.79;99722.94;5067342;28;20058;-56
2022/06/18 03:23:50;;;;;;;3.92;2.40;;;;;;;16.87;69.54;99723.75;5065295;28;20036;-56
2022/06/18 03:26:16;;;;;;;5.53;2.47;;;;;;;16.87;70.19;99715.63;5068387;28;20380;-56
2022/06/18 03:28:42;;;;;;;4.25;2.58;;;;;;;16.83;70.34;99723.47;5068527;28;20071;-55
2022/06/18 03:31:07;;;;;;;4.32;2.33;;;;;;;16.91;69.62;99722.94;5067397;28;20459;-56
2022/06/18 03:33:33;;;;;;;7.70;2.47;;;;;;;16.90;69.38;99721.31;5067981;28;20033;-56
2022/06/18 03:35:59;;;;;;;6.30;2.40;;;;;;;16.85;69.94;99715.06;5044713;28;20029;-56
2022/06/18 03:38:24;;;;;;;4.55;2.70;;;;;;;16.66;70.52;99723.72;5039387;28;20024;-57
2022/06/18 03:40:53;;;;;;;7.30;2.60;;;;;;;16.72;70.63;99717.22;5067967;28;20660;-56
2022/06/18 03:43:19;;;;;;;7.05;2.50;;;;;;;16.86;70.00;99722.94;5069322;28;20078;-56
2022/06/18 03:45:45;;;;;;;16.05;3.03;;;;;;;17.23;68.38;99721.81;5048242;28;20032;-56
2022/06/18 03:48:29;;;;;;;7.93;2.50;;;;;;;17.57;67.69;99718.44;5068434;28;20045;-56
2022/06/18 03:50:55;;;;;;;4.82;2.40;;;;;;;17.80;67.21;99719.75;5068407;28;20032;-57
2022/06/18 03:53:20;;;;;;;6.00;2.50;;;;;;;17.91;66.59;99720.50;5067857;28;20028;-56
2022/06/18 03:55:46;;;;;;;8.82;2.85;;;;;;;17.81;66.99;99716.75;5068088;28;20058;-55
2022/06/18 03:58:11;;;;;;;5.40;2.53;;;;;;;17.64;67.09;99729.81;5041939;28;20414;-56
2022/06/18 04:00:37;;;;;;;4.32;2.40;;;;;;;17.53;67.74;99728.22;5068444;28;20037;-55
2022/06/18 04:03:03;;;;;;;3.22;2.28;;;;;;;17.65;67.68;99728.72;5067641;28;20028;-55
2022/06/18 04:05:29;;;;;;;5.03;2.53;;;;;;;18.27;66.19;99729.25;5048215;28;20040;-53
2022/06/18 04:07:55;;;;;;;4.30;2.50;;;;;;;18.14;66.07;99717.13;5050048;28;20033;-55
2022/06/18 04:10:21;;;;;;;5.07;2.88;;;;;;;17.59;68.03;99718.97;5067440;28;20402;-55
2022/06/18 04:12:47;;;;;;;6.32;2.50;;;;;;;17.64;68.11;99724.38;5067590;28;20035;-55
2022/06/18 04:15:13;;;;;;;7.07;2.63;;;;;;;18.40;65.74;99717.78;5050592;28;20467;-55
2022/06/18 04:17:39;;;;;;;3.78;2.40;;;;;;;19.00;63.85;99716.78;5050005;28;20028;-56
2022/06/18 04:20:05;;;;;;;5.03;2.85;;;;;;;19.19;63.04;99717.66;5068148;28;20032;-56
2022/06/18 04:22:30;;;;;;;5.13;2.53;;;;;;;19.44;62.10;99718.47;5068170;28;20060;-55
2022/06/18 04:24:56;;;;;;;6.82;2.45;;;;;;;19.55;62.42;99715.38;5067294;28;20490;-55
2022/06/18 04:27:21;;;;;;;7.70;2.50;;;;;;;20.18;60.30;99714.28;5067126;28;20386;-55
2022/06/18 04:29:47;;;;;;;4.72;2.72;;;;;;;19.91;60.45;99719.56;5067562;28;20399;-55
2022/06/18 04:32:12;;;;;;;4.28;2.60;;;;;;;20.17;59.15;99720.03;5064537;28;20455;-56
2022/06/18 04:34:37;;;;;;;5.43;2.67;;;;;;;20.55;58.30;99720.03;5067260;28;20032;-55
2022/06/18 04:37:03;;;;;;;7.28;2.60;;;;;;;20.67;57.76;99720.41;5016918;28;20033;-55
2022/06/18 04:39:29;;;;;;;4.60;2.10;;;;;;;21.02;57.26;99723.63;5048957;28;20448;-56
2022/06/18 04:41:54;;;;;;;5.28;2.40;;;;;;;21.66;55.31;99721.06;5067339;28;20028;-56
2022/06/18 04:44:19;;;;;;;6.75;2.35;;;;;;;22.05;54.21;99725.97;5067493;28;20460;-57
2022/06/18 04:46:45;;;;;;;3.50;2.33;;;;;;;22.80;52.18;99715.50;5060987;28;20025;-55
2022/06/18 04:49:11;;;;;;;5.25;2.58;;;;;;;23.08;51.64;99712.63;5067419;28;20355;-55
2022/06/18 04:51:36;;;;;;;7.18;2.50;;;;;;;23.68;49.86;99717.53;5060987;28;20063;-55
2022/06/18 04:54:02;;;;;;;4.97;2.53;;;;;;;23.39;50.37;99716.16;5066788;28;20471;-55
2022/06/18 04:56:28;;;;;;;12.60;3.28;;;;;;;23.13;51.08;99723.44;5067703;28;20121;-55
2022/06/18 04:58:53;;;;;;;15.02;2.92;;;;;;;23.04;51.61;99717.94;5067352;28;20016;-56
2022/06/18 05:01:20;;;;;;;11.15;2.90;;;;;;;23.46;50.15;99715.69;5071559;28;20098;-55
2022/06/18 05:03:46;;;;;;;5.88;2.72;;;;;;;23.46;50.37;99721.97;5071530;28;21439;-56
2022/06/18 05:06:11;;;;;;;8.77;2.88;;;;;;;23.57;50.37;99721.69;5041328;28;20487;-55
2022/06/18 05:08:36;;;;;;;14.40;3.00;;;;;;;23.69;49.81;99717.22;5046125;28;20067;-55
2022/06/18 05:11:02;;;;;;;4.63;2.80;;;;;;;23.78;49.69;99716.44;5025949;28;20021;-55
2022/06/18 05:13:29;;;;;;;9.38;2.88;;;;;;;24.74;47.68;99717.31;5033341;28;20394;-56
2022/06/18 05:15:55;;;;;;;6.45;2.90;;;;;;;24.77;47.81;99719.41;5047766;28;20021;-56
2022/06/18 05:18:20;;;;;;;7.90;2.65;;;;;;;25.00;47.38;99728.22;5051630;28;20023;-56
2022/06/18 05:20:51;;;;;;;7.10;2.70;;;;;;;25.16;47.31;99726.59;5041995;28;20530;-55
2022/06/18 05:23:17;;;;;;;8.32;2.83;;;;;;;25.13;46.86;99721.72;5050687;28;20473;-56
2022/06/18 05:25:42;;;;;;;10.18;2.90;;;;;;;25.51;46.13;99726.47;5051268;28;20013;-55
2022/06/18 05:28:09;;;;;;;9.23;3.15;;;;;;;25.84;46.14;99728.53;5028384;28;20498;-56
2022/06/18 05:30:35;;;;;;;11.98;3.20;;;;;;;25.80;45.50;99717.41;5023233;28;20525;-55
2022/06/18 05:33:00;;;;;;;9.73;3.25;;;;;;;24.97;46.90;99706.94;5049580;28;20033;-56
2022/06/18 05:35:26;;;;;;;8.80;2.90;;;;;;;26.15;44.98;99700.72;5052222;28;20055;-55
2022/06/18 05:37:51;;;;;;;17.20;2.95;;;;;;;26.01;45.33;99700.19;5050355;28;20025;-56
2022/06/18 05:40:17;;;;;;;9.18;3.03;;;;;;;27.04;43.75;99696.84;5050455;28;20029;-56
2022/06/18 05:42:43;;;;;;;8.80;3.00;;;;;;;27.39;42.58;99700.00;5051023;28;20480;-56
2022/06/18 05:45:09;;;;;;;17.80;3.70;;;;;;;26.43;44.85;99698.25;5049927;28;20044;-56
2022/06/18 05:47:34;;;;;;;12.55;3.33;;;;;;;26.46;45.67;99702.25;5049470;28;20036;-56
2022/06/18 05:50:01;;;;;;;10.90;3.80;;;;;;;27.29;43.07;99693.00;5051321;28;20021;-56
2022/06/18 05:52:26;;;;;;;8.75;3.20;;;;;;;27.41;43.47;99699.63;5049473;28;20411;-56
2022/06/18 05:54:52;;;;;;;10.27;3.10;;;;;;;27.49;42.58;99695.97;5049823;28;20017;-56
2022/06/18 05:57:18;;;;;;;9.85;3.10;;;;;;;26.75;43.48;99700.53;5049249;28;20036;-56
2022/06/18 05:59:44;;;;;;;8.77;3.08;;;;;;;27.00;43.27;99693.94;5038264;28;20033;-56
2022/06/18 06:02:13;;;;;;;9.48;2.80;;;;;;;28.08;41.05;99692.72;5065646;28;20028;-56
2022/06/18 06:04:42;;;;;;;7.30;2.80;;;;;;;27.74;42.28;99685.75;5050825;28;20046;-56
2022/06/18 06:07:22;;;;;;;7.93;2.85;;;;;;;28.18;41.61;99683.97;5025547;28;20018;-56
2022/06/18 06:12:32;;;;;;;6.25;2.90;;;;;;;28.58;41.29;99683.13;5067740;28;20075;-57
2022/06/18 06:14:57;;;;;;;5.43;2.50;;;;;;;29.14;40.37;99673.16;5070234;28;20025;-57
2022/06/18 06:17:24;;;;;;;10.13;3.20;;;;;;;28.92;40.29;99682.81;5046090;28;20090;-56
2022/06/18 06:19:50;;;;;;;5.63;2.50;;;;;;;29.92;38.38;99684.47;5070453;28;20016;-56
2022/06/18 06:22:15;;;;;;;7.70;2.40;;;;;;;28.79;40.28;99673.81;5068634;28;20051;-56
2022/06/18 06:24:41;;;;;;;6.90;2.35;;;;;;;29.44;39.78;99690.06;5069906;28;20498;-55
2022/06/18 06:27:07;;;;;;;10.35;2.80;;;;;;;29.75;38.45;99680.13;5069586;28;20109;-55
2022/06/18 06:29:32;;;;;;;7.57;2.90;;;;;;;30.70;36.77;99688.03;5069709;28;20028;-57
2022/06/18 06:31:57;;;;;;;7.80;2.88;;;;;;;30.36;37.56;99684.22;5070110;28;20392;-57
2022/06/18 06:34:24;;;;;;;5.47;2.50;;;;;;;30.61;36.63;99682.75;5069302;28;20021;-56
2022/06/18 06:36:51;;;;;;;12.60;2.92;;;;;;;30.85;36.66;99675.28;5070269;28;20031;-56
2022/06/18 06:39:16;;;;;;;5.45;2.10;;;;;;;30.22;36.91;99677.19;5069688;28;20025;-57
2022/06/18 06:41:42;;;;;;;5.78;2.20;;;;;;;28.48;39.19;99674.56;5068280;28;20032;-57
2022/06/18 06:44:08;;;;;;;5.75;2.30;;;;;;;30.44;37.20;99678.47;5068287;28;20490;-56
2022/06/18 06:46:33;;;;;;;5.63;2.20;;;;;;;30.81;36.58;99671.63;5069936;28;20035;-56
2022/06/18 06:48:59;;;;;;;6.85;2.58;;;;;;;30.78;36.18;99672.34;5070380;28;20032;-57
2022/06/18 06:51:26;;;;;;;6.20;2.30;;;;;;;30.68;36.64;99677.34;5068674;28;20036;-57
2022/06/18 06:53:51;;;;;;;6.10;2.38;;;;;;;29.82;38.06;99677.53;5068630;28;20029;-56
2022/06/18 06:59:02;;;;;;;4.25;1.90;;;;;;;30.81;37.21;99679.94;5067921;28;20086;-56
2022/06/18 07:01:27;;;;;;;4.13;2.10;;;;;;;31.35;36.35;99676.94;5070553;28;20036;-56
2022/06/18 07:03:53;;;;;;;7.38;2.42;;;;;;;30.98;36.83;99668.41;5069193;28;20087;-56
2022/06/18 07:06:19;;;;;;;3.28;2.20;;;;;;;31.99;34.88;99674.31;5069603;28;20032;-57
2022/06/18 07:08:45;;;;;;;5.53;2.15;;;;;;;31.66;35.51;99674.25;5068668;28;20024;-56
2022/06/18 07:11:11;;;;;;;5.68;2.30;;;;;;;32.33;34.59;99673.56;5068746;28;20033;-56
2022/06/18 07:13:37;;;;;;;4.60;2.33;;;;;;;32.07;35.26;99671.66;5068737;28;20123;-58
2022/06/18 07:16:04;;;;;;;3.33;2.20;;;;;;;29.39;38.99;99668.25;5064013;28;20017;-56
2022/06/18 07:18:32;;;;;;;6.70;2.30;;;;;;;30.70;37.66;99671.41;5067735;28;20025;-56
2022/06/18 07:20:58;;;;;;;5.97;2.30;;;;;;;30.50;37.16;99671.47;5016431;28;20033;-56
2022/06/18 07:23:24;;;;;;;8.70;2.58;;;;;;;29.88;37.84;99676.09;5066592;28;20024;-56
2022/06/18 07:25:49;;;;;;;8.65;2.40;;;;;;;30.21;38.06;99681.13;5068687;28;20033;-56
2022/06/18 07:28:15;;;;;;;4.07;2.15;;;;;;;30.19;38.50;99671.59;5068146;28;20039;-57
2022/06/18 07:30:40;;;;;;;4.38;2.33;;;;;;;29.46;39.76;99660.13;5067687;28;20029;-58
2022/06/18 07:33:06;;;;;;;5.13;2.22;;;;;;;31.74;36.33;99662.88;5068352;28;20459;-57
2022/06/18 07:35:31;;;;;;;4.10;2.08;;;;;;;31.16;37.15;99663.97;5068345;28;20029;-56
2022/06/18 07:37:58;;;;;;;7.47;2.47;;;;;;;32.61;35.31;99659.22;5067025;28;20469;-56
2022/06/18 07:40:24;;;;;;;4.28;2.20;;;;;;;32.97;33.89;99651.22;5067909;28;20020;-56
2022/06/18 07:42:51;;;;;;;5.50;2.05;;;;;;;32.71;34.94;99654.97;5051367;28;20052;-57
2022/06/18 07:45:19;;;;;;;5.70;2.40;;;;;;;30.26;36.85;99644.16;5050896;28;20025;-56
2022/06/18 07:47:45;;;;;;;5.38;2.10;;;;;;;29.44;38.03;99649.44;5067992;28;20378;-56
2022/06/18 07:50:11;;;;;;;4.60;2.40;;;;;;;29.54;39.16;99644.53;5069096;28;20350;-56
2022/06/18 07:52:36;;;;;;;6.68;2.33;;;;;;;31.31;35.87;99651.16;5067604;28;20110;-56
2022/06/18 07:55:02;;;;;;;4.43;2.35;;;;;;;29.60;38.33;99643.06;5067291;28;20025;-55
2022/06/18 07:57:28;;;;;;;9.38;2.33;;;;;;;28.84;38.90;99642.44;5068684;28;20055;-55
2022/06/18 07:59:53;;;;;;;5.05;2.53;;;;;;;30.30;38.00;99634.75;5068319;28;20451;-56
2022/06/18 08:02:19;;;;;;;5.13;2.40;;;;;;;31.66;36.06;99641.78;5068095;28;20051;-56
2022/06/18 08:04:44;;;;;;;7.13;2.50;;;;;;;30.58;37.42;99625.41;5067992;28;20044;-55
2022/06/18 08:07:10;;;;;;;4.25;2.45;;;;;;;29.73;38.88;99630.78;5068540;28;20036;-57
2022/06/18 08:09:35;;;;;;;5.65;2.33;;;;;;;31.94;35.89;99624.75;5066205;28;20045;-55
2022/06/18 08:12:01;;;;;;;3.60;2.30;;;;;;;29.89;39.04;99620.47;5050458;28;20279;-56
2022/06/18 08:14:26;;;;;;;8.90;2.50;;;;;;;30.44;38.02;99616.84;5048881;28;20064;-56
2022/06/18 08:16:52;;;;;;;11.35;2.25;;;;;;;32.04;35.02;99606.66;5068231;28;20020;-57
2022/06/18 08:19:17;;;;;;;5.03;2.72;;;;;;;31.30;36.70;99607.22;5068887;28;20379;-56
2022/06/18 08:21:43;;;;;;;5.13;2.45;;;;;;;31.57;36.24;99605.25;5068004;28;20055;-57
2022/06/18 08:24:13;;;;;;;5.38;2.30;;;;;;;32.13;34.71;99595.31;5034605;28;20071;-57
2022/06/18 08:26:38;;;;;;;8.23;2.33;;;;;;;30.93;36.06;99599.53;5020996;28;20025;-57
2022/06/18 08:29:04;;;;;;;4.05;2.45;;;;;;;30.95;36.41;99595.22;5067679;28;20074;-57
2022/06/18 08:31:30;;;;;;;5.95;2.70;;;;;;;30.99;36.66;99591.72;5031257;28;20032;-57
2022/06/18 08:33:55;;;;;;;5.20;2.40;;;;;;;30.80;37.00;99595.31;5066590;28;20567;-56
2022/06/18 08:36:21;;;;;;;4.60;2.50;;;;;;;30.23;37.49;99590.34;5068043;28;20116;-57
2022/06/18 08:38:47;;;;;;;4.50;2.22;;;;;;;30.96;36.67;99598.78;5067107;28;20474;-56
2022/06/18 08:41:48;;;;;;;8.40;2.30;;;;;;;29.64;38.80;99591.50;5067615;28;20056;-56
2022/06/18 08:44:16;;;;;;;5.28;2.50;;;;;;;32.51;35.18;99579.47;5067489;28;20032;-56
2022/06/18 08:47:16;;;;;;;5.15;2.20;;;;;;;32.21;34.91;99574.78;5066799;28;20501;-56
2022/06/18 08:49:45;;;;;;;8.57;2.58;;;;;;;30.68;37.56;99572.22;5063637;28;20139;-56
2022/06/18 08:52:38;;;;;;;5.47;2.30;;;;;;;32.11;35.91;99573.50;5059048;28;20024;-56
2022/06/18 08:55:45;;;;;;;4.82;2.40;;;;;;;31.65;36.51;99579.22;5058698;28;20192;-57
2022/06/18 08:58:27;;;;;;;5.35;2.40;;;;;;;30.48;37.30;99579.78;5044358;28;20094;-57
2022/06/18 09:01:16;;;;;;;5.22;2.40;;;;;;;30.18;38.84;99574.06;5065963;28;20033;-57
2022/06/18 09:04:21;;;;;;;3.72;2.40;;;;;;;30.58;37.95;99575.63;5064385;28;20094;-58
2022/06/18 09:07:10;;;;;;;5.47;2.40;;;;;;;30.85;37.17;99570.13;5063661;28;20473;-54
2022/06/18 09:09:55;;;;;;;4.60;2.40;;;;;;;31.09;37.24;99563.41;5062922;28;20056;-55
2022/06/18 09:12:37;;;;;;;5.07;2.65;;;;;;;30.56;37.61;99563.31;5067147;28;20032;-56
2022/06/18 09:15:05;;;;;;;6.20;2.53;;;;;;;31.52;36.60;99564.81;5050127;28;20112;-55
2022/06/18 09:17:33;;;;;;;7.78;2.47;;;;;;;32.86;34.11;99568.66;5066975;28;20467;-58
2022/06/18 09:20:07;;;;;;;4.43;2.63;;;;;;;33.22;33.27;99566.16;5061854;28;20033;-57
2022/06/18 09:22:33;;;;;;;4.43;2.38;;;;;;;33.21;33.72;99569.34;5037032;28;20033;-55
2022/06/18 09:25:03;;;;;;;8.50;2.25;;;;;;;34.12;33.33;99564.63;5015900;28;20112;-56
2022/06/18 09:27:47;;;;;;;4.30;2.25;;;;;;;33.84;33.02;99570.06;5038991;28;20036;-56
2022/06/18 09:30:17;;;;;;;5.93;2.45;;;;;;;32.82;32.75;99562.28;5066630;28;20020;-57
2022/06/18 09:32:51;;;;;;;7.82;2.50;;;;;;;32.13;34.20;99562.03;5062983;28;20070;-57
2022/06/18 09:35:29;;;;;;;6.28;2.45;;;;;;;31.82;34.76;99561.25;5048597;28;20026;-57
2022/06/18 09:37:58;;;;;;;6.20;2.40;;;;;;;32.49;34.42;99562.41;5033844;28;20036;-57
2022/06/18 09:40:29;;;;;;;4.15;2.15;;;;;;;33.81;32.45;99560.53;5045986;28;20060;-56
2022/06/18 09:43:18;;;;;;;8.70;2.50;;;;;;;33.16;32.28;99558.59;5048956;28;20023;-55
2022/06/18 09:45:53;;;;;;;5.43;2.20;;;;;;;32.10;34.58;99560.00;5050759;28;20475;-58
2022/06/18 09:48:18;;;;;;;5.03;2.33;;;;;;;33.42;32.87;99549.22;5070065;28;20514;-55
2022/06/18 09:50:49;;;;;;;4.82;2.30;;;;;;;33.44;32.95;99552.41;5056099;28;20039;-56
2022/06/18 09:53:30;;;;;;;4.88;2.15;;;;;;;33.30;32.10;99556.69;5040250;28;20029;-58
2022/06/18 09:56:01;;;;;;;6.75;2.53;;;;;;;32.86;31.98;99545.66;5067037;28;20016;-55
2022/06/18 09:58:30;;;;;;;6.28;2.53;;;;;;;32.05;33.82;99557.56;5068870;28;20470;-56
2022/06/18 10:00:56;;;;;;;8.30;2.50;;;;;;;32.41;33.85;99542.09;5053666;28;20119;-55
2022/06/18 10:08:57;;;;;;;6.72;2.70;;;;;;;33.03;33.13;99533.13;5053484;28;20437;-54
2022/06/18 10:11:23;;;;;;;14.15;3.03;;;;;;;33.85;32.39;99527.16;5067700;28;20072;-55
2022/06/18 10:14:10;;;;;;;7.22;2.75;;;;;;;33.70;32.08;99521.59;5040897;28;20040;-60
2022/06/18 10:17:15;;;;;;;14.07;2.72;;;;;;;33.49;32.22;99525.03;5050615;28;20041;-56
2022/06/18 10:19:56;;;;;;;18.33;3.53;;;;;;;33.25;32.36;99523.75;5067623;28;20388;-54
2022/06/18 10:22:38;;;;;;;8.85;2.97;;;;;;;32.70;32.69;99518.22;5068711;28;20024;-55
2022/06/18 10:25:12;;;;;;;12.52;3.22;;;;;;;34.47;31.14;99512.19;5048481;28;20062;-55
2022/06/18 10:28:01;;;;;;;6.25;2.70;;;;;;;33.42;31.77;99511.09;5042420;28;20078;-57
2022/06/18 10:30:31;;;;;;;;;;;;;;;32.57;32.26;99511.34;5042002;28;20025;-56
2022/06/18 10:33:05;;;;;;;10.13;3.08;;;;;;;32.45;33.33;99502.13;5068912;28;19917;-57
2022/06/18 10:35:54;;;;;;;10.18;3.55;;;;;;;32.65;32.90;99510.22;5070303;28;20032;-56
2022/06/18 10:38:38;;;;;;;13.40;2.70;;;;;;;31.88;33.91;99512.63;5042909;28;20037;-56
2022/06/18 10:41:12;;;;;;;9.07;3.10;;;;;;;32.95;32.59;99504.50;5068399;28;20064;-55
2022/06/18 10:43:43;;;;;;;7.25;2.65;;;;;;;33.56;32.79;99499.31;5069214;28;20037;-57
2022/06/18 10:46:12;;;;;;;10.10;2.90;;;;;;;33.54;32.07;99496.09;5024914;28;20537;-57
2022/06/18 10:48:42;;;;;;;13.10;2.80;;;;;;;34.28;30.48;99494.72;5069059;28;20040;-56
2022/06/18 10:51:14;;;;;;;7.18;2.75;;;;;;;33.80;31.55;99491.41;5025400;28;20037;-57
2022/06/18 10:53:54;;;;;;;8.70;2.72;;;;;;;33.02;32.17;99484.28;5069105;28;20024;-57
2022/06/18 10:56:24;;;;;;;9.95;2.70;;;;;;;34.46;30.84;99494.72;5068577;28;20037;-57
2022/06/18 10:58:53;;;;;;;9.55;2.90;;;;;;;33.79;30.39;99490.63;5069270;28;20021;-56
2022/06/18 11:01:22;;;;;;;;;;;;;;;34.21;30.41;99486.38;5067948;28;20078;-54
2022/06/18 11:04:18;;;;;;;10.80;3.03;;;;;;;34.64;30.19;99474.47;5051844;28;19912;-54
2022/06/18 11:06:47;;;;;;;10.73;3.35;;;;;;;32.26;32.29;99468.28;5060985;28;20039;-57
2022/06/18 11:09:20;;;;;;;18.10;3.50;;;;;;;32.62;32.15;99475.72;5038292;28;20262;-56
2022/06/18 11:11:54;;;;;;;14.23;3.65;;;;;;;32.54;31.34;99473.28;5069017;28;20093;-56
2022/06/18 11:14:19;;;;;;;7.13;3.45;;;;;;;33.16;30.60;99470.53;5044743;28;20025;-57
2022/06/18 11:16:45;;;;;;;13.25;3.60;;;;;;;32.91;31.40;99464.03;5069259;28;20025;-55
2022/06/18 11:19:37;;;;;;;8.75;3.10;;;;;;;33.26;31.15;99464.22;5067956;28;20071;-53
2022/06/18 11:22:29;;;;;;;19.23;3.30;;;;;;;33.44;30.08;99455.16;5059933;28;20046;-55
2022/06/18 11:24:57;;;;;;;10.40;3.33;;;;;;;32.70;31.17;99465.50;5063609;28;20044;-55
2022/06/18 11:27:22;;;;;;;11.27;3.50;;;;;;;32.67;31.12;99452.38;5069197;28;20437;-57
2022/06/18 11:29:49;;;;;;;8.48;3.10;;;;;;;33.75;29.67;99452.91;5067714;28;20112;-55
2022/06/18 11:32:35;;;;;;;11.32;3.65;;;;;;;33.74;29.24;99452.09;5030261;28;20082;-54
2022/06/18 11:35:08;;;;;;;10.30;3.53;;;;;;;33.83;29.21;99451.75;5066870;28;20064;-56
2022/06/18 11:37:33;;;;;;;9.88;3.50;;;;;;;32.62;31.05;99441.63;5065879;28;20339;-57
2022/06/18 11:40:15;;;;;;;13.50;3.95;;;;;;;32.53;31.21;99432.88;5067259;28;20029;-57
2022/06/18 11:43:11;;;;;;;8.10;3.22;;;;;;;32.15;30.69;99432.13;5067849;28;20029;-54
2022/06/18 11:45:45;;;;;;;12.48;3.78;;;;;;;33.43;30.57;99436.94;5067527;28;20047;-55
2022/06/18 11:48:26;;;;;;;14.18;3.38;;;;;;;33.77;29.57;99429.06;5062333;28;20478;-55
2022/06/18 11:51:18;;;;;;;13.57;5.30;;;;;;;35.18;28.29;99416.69;5049885;28;20032;-55
2022/06/18 11:54:07;;;;;;;15.50;3.75;;;;;;;34.85;27.58;99415.97;5044407;28;20111;-55
2022/06/18 11:56:51;;;;;;;;;;;;;;;35.26;27.27;99415.44;5029188;28;20029;-55
2022/06/18 11:59:56;;;;;;;13.15;3.63;;;;;;;35.73;27.26;99413.22;5067571;28;20339;-54
2022/06/18 12:02:29;;;;;;;17.02;4.25;;;;;;;35.61;26.90;99402.53;5020057;28;20550;-55